Flight Track Log - Related Links

Times and Time Zones

All times are in EDT time to prevent confusion due to time zone crossing. See the CSH9128 flight status page for this flight to view local times or setup timezone preferences in your user account.

Time Position Orientation Groundspeed Altitude Reporting Facility
EDT Latitude Longitude Course Direction KTS MPH feet Rate Location/Type
Sun 07:54:00 AM 39.8731 112.9440 139° Southeast  Level Estimated
Sun 07:55:00 AM 39.8028 113.0228 139° Southeast  Level Estimated
Sun 07:56:00 AM 39.7330 113.1008 139° Southeast  Level Estimated
Sun 07:57:00 AM 39.6632 113.1786 139° Southeast  Level Estimated
Sun 07:58:00 AM 39.5932 113.2563 139° Southeast  Level Estimated
Sun 07:59:00 AM 39.5233 113.3339 139° Southeast  Level Estimated
Sun 08:00:00 AM 39.4532 113.4113 140° Southeast  Level Estimated
Sun 08:01:00 AM 39.3832 113.4885 140° Southeast  Level Estimated
Sun 08:02:00 AM 39.3130 113.5656 140° Southeast  Level Estimated
Sun 08:03:00 AM 39.2429 113.6425 140° Southeast  Level Estimated
Sun 08:04:00 AM 39.1726 113.7193 140° Southeast  Level Estimated
Sun 08:05:00 AM 39.1024 113.7959 140° Southeast  Level Estimated
Sun 08:06:00 AM 39.0320 113.8724 140° Southeast  Level Estimated
Sun 08:07:00 AM 38.9617 113.9487 140° Southeast  Level Estimated
Sun 08:08:00 AM 38.8912 114.0248 140° Southeast  Level Estimated
Sun 08:09:00 AM 38.8208 114.1008 140° Southeast  Level Estimated
Sun 08:10:00 AM 38.7502 114.1767 140° Southeast  Level Estimated
Sun 08:11:00 AM 38.6797 114.2524 140° Southeast  Level Estimated
Sun 08:12:00 AM 38.6091 114.3280 140° Southeast  Level Estimated
Sun 08:13:00 AM 38.5384 114.4034 140° Southeast  Level Estimated
Sun 08:14:00 AM 38.4677 114.4786 140° Southeast  Level Estimated
Sun 08:15:00 AM 38.3969 114.5537 140° Southeast  Level Estimated
Sun 08:16:00 AM 38.3261 114.6287 140° Southeast  Level Estimated
Sun 08:17:00 AM 38.2552 114.7035 140° Southeast  Level Estimated
Sun 08:18:00 AM 38.1843 114.7782 140° Southeast  Level Estimated
Sun 08:19:00 AM 38.1133 114.8527 140° Southeast  Level Estimated
Sun 08:20:00 AM 38.0424 114.9271 140° Southeast  Level Estimated
Sun 08:21:00 AM 37.9713 115.0014 141° Southeast  Level Estimated
Sun 08:22:00 AM 37.9002 115.0755 141° Southeast  Level Estimated
Sun 08:23:00 AM 37.8291 115.1494 141° Southeast  Level Estimated
Sun 08:24:00 AM 37.7579 115.2232 141° Southeast  Level Estimated
Sun 08:25:00 AM 37.6866 115.2969 141° Southeast  Level Estimated
Sun 08:26:00 AM 37.6154 115.3704 141° Southeast  Level Estimated
Sun 08:27:00 AM 37.5440 115.4438 141° Southeast  Level Estimated
Sun 08:28:00 AM 37.4727 115.5171 141° Southeast  Level Estimated
Sun 08:29:00 AM 37.4012 115.5902 141° Southeast  Level Estimated
Sun 08:30:00 AM 37.3298 115.6631 141° Southeast  Level Estimated
Sun 08:31:00 AM 37.2583 115.7360 141° Southeast  Level Estimated
Sun 08:32:00 AM 37.1867 115.8087 141° Southeast  Level Estimated
Sun 08:33:00 AM 37.1151 115.8812 141° Southeast  Level Estimated
Sun 08:34:00 AM 37.0435 115.9536 141° Southeast  Level Estimated
Sun 08:35:00 AM 36.9718 116.0259 141° Southeast  Level Estimated
Sun 08:36:00 AM 36.9001 116.0981 141° Southeast  Level Estimated
Sun 08:37:00 AM 36.8283 116.1701 141° Southeast  Level Estimated
Sun 08:38:00 AM 36.7565 116.2419 141° Southeast  Level Estimated
Sun 08:39:00 AM 36.6846 116.3137 141° Southeast  Level Estimated
Sun 08:40:00 AM 36.6127 116.3853 141° Southeast  Level Estimated
Sun 08:41:00 AM 36.5408 116.4568 141° Southeast  Level Estimated
Sun 08:42:00 AM 36.4688 116.5281 141° Southeast  Level Estimated
Sun 08:43:00 AM 36.3968 116.5993 141° Southeast  Level Estimated
Sun 08:44:00 AM 36.3247 116.6704 142° Southeast  Level Estimated
Sun 08:45:00 AM 36.2526 116.7413 142° Southeast  Level Estimated
Sun 08:46:00 AM 36.1805 116.8121 142° Southeast  Level Estimated
Sun 08:47:00 AM 36.1082 116.8828 142° Southeast  Level Estimated
Sun 08:48:00 AM 36.0360 116.9534 142° Southeast  Level Estimated
Sun 08:49:00 AM 35.9637 117.0238 142° Southeast  Level Estimated
Sun 08:50:00 AM 35.8914 117.0941 142° Southeast  Level Estimated
Sun 08:51:00 AM 35.8191 117.1643 142° Southeast  Level Estimated
Sun 08:52:00 AM 35.7467 117.2343 142° Southeast  Level Estimated
Sun 08:53:00 AM 35.6742 117.3042 142° Southeast  Level Estimated
Sun 08:54:00 AM 35.6017 117.3740 142° Southeast  Level Estimated
Sun 08:55:00 AM 35.5292 117.4436 142° Southeast  Level Estimated
Sun 08:56:00 AM 35.4566 117.5132 142° Southeast  Level Estimated
Sun 08:57:00 AM 35.3840 117.5826 142° Southeast  Level Estimated
Sun 08:58:00 AM 35.3114 117.6518 142° Southeast  Level Estimated
Sun 08:59:00 AM 35.2387 117.7210 142° Southeast  Level Estimated
Sun 09:00:00 AM 35.1660 117.7900 142° Southeast  Level Estimated
Sun 09:01:00 AM 35.0933 117.8589 142° Southeast  Level Estimated
Sun 09:02:00 AM 35.0205 117.9277 142° Southeast  Level Estimated
Sun 09:03:00 AM 34.9476 117.9964 142° Southeast  Level Estimated
Sun 09:04:00 AM 34.8747 118.0649 142° Southeast  Level Estimated
Sun 09:05:00 AM 34.8018 118.1334 142° Southeast  Level Estimated
Sun 09:06:00 AM 34.7289 118.2017 142° Southeast  Level Estimated
Sun 09:07:00 AM 34.6559 118.2698 142° Southeast  Level Estimated
Sun 09:08:00 AM 34.5829 118.3379 142° Southeast  Level Estimated
Sun 09:09:00 AM 34.5098 118.4058 143° Southeast  Level Estimated
Sun 09:10:00 AM 34.4367 118.4737 143° Southeast  Level Estimated
Sun 09:11:00 AM 34.3635 118.5414 143° Southeast  Level Estimated
Sun 09:12:00 AM 34.2904 118.6089 143° Southeast  Level Estimated
Sun 09:13:00 AM 34.2172 118.6764 143° Southeast  Level Estimated
Sun 09:14:00 AM 34.1439 118.7438 143° Southeast  Level Estimated
Sun 09:15:00 AM 34.0706 118.8110 143° Southeast  Level Estimated
Sun 09:16:00 AM 33.9973 118.8781 143° Southeast  Level Estimated
Sun 09:17:00 AM 33.9239 118.9451 143° Southeast  Level Estimated
Sun 09:18:00 AM 33.8505 119.0120 143° Southeast  Level Estimated
Sun 09:19:00 AM 33.7771 119.0788 143° Southeast  Level Estimated
Sun 09:20:00 AM 33.7036 119.1454 143° Southeast  Level Estimated
Sun 09:21:00 AM 33.6301 119.2120 143° Southeast  Level Estimated
Sun 09:22:00 AM 33.5566 119.2784 143° Southeast  Level Estimated
Sun 09:23:00 AM 33.4830 119.3447 143° Southeast  Level Estimated
Sun 09:24:00 AM 33.4094 119.4109 143° Southeast  Level Estimated
Sun 09:25:00 AM 33.3358 119.4770 143° Southeast  Level Estimated
Sun 09:26:00 AM 33.2621 119.5430 143° Southeast  Level Estimated
Sun 09:27:00 AM 33.1884 119.6088 143° Southeast  Level Estimated
Sun 09:28:00 AM 33.1146 119.6746 143° Southeast  Level Estimated
Sun 09:29:00 AM 33.0408 119.7402 143° Southeast  Level Estimated
Sun 09:30:00 AM 32.9670 119.8058 143° Southeast  Level Estimated
Sun 09:31:00 AM 32.8932 119.8712 143° Southeast  Level Estimated
Sun 09:32:00 AM 32.8193 119.9365 143° Southeast  Level Estimated
Sun 09:33:00 AM 32.7453 120.0017 143° Southeast  Level Estimated
Sun 09:34:00 AM 32.6714 120.0668 143° Southeast  Level Estimated
Sun 09:35:00 AM 32.5974 120.1318 143° Southeast  Level Estimated
Sun 09:36:00 AM 32.5234 120.1967 144° Southeast  Level Estimated
Sun 09:37:00 AM 32.4493 120.2615 144° Southeast  Level Estimated
Sun 09:38:00 AM 32.3752 120.3262 144° Southeast  Level Estimated
Sun 09:39:00 AM 32.3011 120.3907 144° Southeast  Level Estimated
Sun 09:40:00 AM 32.2270 120.4552 144° Southeast  Level Estimated
Sun 09:41:00 AM 32.1528 120.5196 144° Southeast  Level Estimated
Sun 09:42:00 AM 32.0785 120.5838 144° Southeast  Level Estimated
Sun 09:43:00 AM 32.0043 120.6480 144° Southeast  Level Estimated
Sun 09:44:00 AM 31.9300 120.7120 144° Southeast  Level Estimated
Sun 09:45:00 AM 31.8557 120.7759 144° Southeast  Level Estimated
Sun 09:46:00 AM 31.7813 120.8398 144° Southeast  Level Estimated
Sun 09:47:00 AM 31.7070 120.9035 144° Southeast  Level Estimated
Sun 09:48:00 AM 31.6325 120.9671 144° Southeast  Level Estimated
Sun 09:49:00 AM 31.5581 121.0307 144° Southeast  Level Estimated
Sun 09:50:00 AM 31.4836 121.0941 144° Southeast  Level Estimated
Sun 09:51:00 AM 31.4091 121.1574 144° Southeast  Level Estimated
Sun 09:52:00 AM 31.3346 121.2207 144° Southeast  Level Estimated
Sun 09:53:00 AM 31.2600 121.2838 144° Southeast  Level Estimated
Sun 09:54:00 AM 31.1979 121.3363 144° Southeast  Level Estimated
Sun 09:55:00 AM 31.1979 121.3363 North  Level Estimated
Sun 09:56:00 AM 31.1979 121.3363 North  Level Estimated
Sun 09:57:00 AM 31.1979 121.3363 North  Level Estimated
Sun 09:58:00 AM 31.1979 121.3363 North  Level Estimated

Login

Don't have an account? Register now (free) for customized features, flight alerts, and more!